Time;durP1;ratioP1;P1;durP2;ratioP2;P2;SDS_P1;SDS_P2;PMS_P1;PMS_P2;Temp;Humidity;BMP_temperature;BMP_pressure;BME280_temperature;BME280_humidity;BME280_pressure;Samples;Min_cycle;Max_cycle;Signal;HPM_P1;HPM_P2
2020/12/28 00:01:28;;;;;;;9.48;4.93;;;2.60;83.60;;;;;;5048243;28;20108;-48
2020/12/28 00:03:54;;;;;;;8.95;5.13;;;2.70;83.70;;;;;;5046660;28;20450;-47
2020/12/28 00:06:19;;;;;;;6.10;4.40;;;2.70;83.80;;;;;;5041991;28;20450;-46
2020/12/28 00:08:44;;;;;;;8.82;4.93;;;2.70;84.30;;;;;;5042805;28;20143;-47
2020/12/28 00:11:10;;;;;;;7.97;4.40;;;2.70;84.50;;;;;;5037316;28;20100;-47
2020/12/28 00:13:35;;;;;;;8.60;4.78;;;2.70;84.60;;;;;;5038198;28;20034;-51
2020/12/28 00:16:01;;;;;;;9.30;4.93;;;2.70;85.10;;;;;;5047054;28;20032;-46
2020/12/28 00:18:26;;;;;;;10.15;5.45;;;2.60;85.40;;;;;;5042502;28;20017;-47
2020/12/28 00:20:52;;;;;;;7.68;4.82;;;2.70;85.80;;;;;;5037806;28;20482;-47
2020/12/28 00:23:17;;;;;;;9.02;4.85;;;2.70;86.00;;;;;;5035067;28;20037;-47
2020/12/28 00:25:43;;;;;;;11.48;5.82;;;2.70;86.50;;;;;;5037547;28;20036;-48
2020/12/28 00:28:08;;;;;;;8.95;4.95;;;2.70;86.70;;;;;;5039641;28;20042;-48
2020/12/28 00:30:34;;;;;;;10.02;4.90;;;2.70;87.20;;;;;;5035839;28;20053;-45
2020/12/28 00:32:59;;;;;;;8.82;5.00;;;2.70;87.50;;;;;;5032001;28;20406;-47
2020/12/28 00:35:25;;;;;;;10.57;5.10;;;2.70;87.90;;;;;;5038875;28;20030;-45
2020/12/28 00:37:50;;;;;;;9.55;5.13;;;2.70;88.30;;;;;;5044289;28;20025;-48
2020/12/28 00:40:16;;;;;;;10.98;5.65;;;2.70;88.50;;;;;;5037437;28;20036;-48
2020/12/28 00:42:41;;;;;;;11.85;5.85;;;2.70;88.90;;;;;;5032894;28;20067;-50
2020/12/28 00:45:09;;;;;;;8.77;5.30;;;2.70;89.70;;;;;;5036852;28;20057;-46
2020/12/28 00:47:35;;;;;;;8.80;5.18;;;2.60;90.00;;;;;;5036664;28;20036;-48
2020/12/28 00:50:00;;;;;;;9.48;5.07;;;2.60;90.20;;;;;;5036517;28;20148;-48
2020/12/28 00:52:25;;;;;;;8.50;4.90;;;2.50;90.70;;;;;;5034738;28;20098;-47
2020/12/28 00:54:51;;;;;;;10.43;5.78;;;2.40;90.80;;;;;;5031597;28;20339;-44
2020/12/28 00:57:16;;;;;;;13.68;5.20;;;2.40;91.10;;;;;;5028131;28;20029;-48
2020/12/28 00:59:42;;;;;;;8.25;4.32;;;2.30;91.50;;;;;;5040309;28;20036;-44
2020/12/28 01:02:07;;;;;;;9.55;5.20;;;2.30;91.70;;;;;;5050469;28;20358;-50
2020/12/28 01:04:33;;;;;;;9.02;4.85;;;2.20;92.30;;;;;;5037442;28;20100;-46
2020/12/28 01:06:58;;;;;;;8.32;4.68;;;2.20;92.30;;;;;;5035273;28;20034;-44
2020/12/28 01:09:24;;;;;;;13.25;5.78;;;2.20;93.00;;;;;;5036487;28;20041;-47
2020/12/28 01:11:49;;;;;;;10.18;5.13;;;2.10;93.10;;;;;;5031738;28;20034;-48
2020/12/28 01:14:15;;;;;;;11.38;5.13;;;2.10;93.10;;;;;;5034493;28;20028;-45
2020/12/28 01:16:43;;;;;;;9.35;4.70;;;2.10;93.40;;;;;;5034046;28;20036;-49
2020/12/28 01:19:08;;;;;;;7.88;4.57;;;2.00;93.60;;;;;;5035453;28;20100;-47
2020/12/28 01:21:34;;;;;;;9.15;5.03;;;2.00;94.20;;;;;;5031472;28;20443;-46
2020/12/28 01:23:59;;;;;;;13.25;4.97;;;2.00;94.20;;;;;;5031405;28;20390;-51
2020/12/28 01:26:25;;;;;;;8.85;4.63;;;1.90;94.70;;;;;;5031211;28;20030;-46
2020/12/28 01:28:50;;;;;;;8.57;4.75;;;2.00;95.20;;;;;;5030564;28;20040;-45
2020/12/28 01:31:16;;;;;;;7.47;4.60;;;2.00;95.70;;;;;;5030378;28;20040;-47
2020/12/28 01:33:42;;;;;;;12.63;6.13;;;2.00;96.40;;;;;;5032457;28;20045;-47
2020/12/28 01:36:07;;;;;;;8.73;4.25;;;2.00;96.80;;;;;;5032404;28;20029;-49
2020/12/28 01:38:33;;;;;;;5.57;2.90;;;2.00;96.70;;;;;;5031720;28;20418;-48
2020/12/28 01:40:59;;;;;;;8.88;4.75;;;1.90;96.30;;;;;;5041677;28;20037;-49
2020/12/28 01:43:26;;;;;;;10.10;5.18;;;1.90;97.40;;;;;;5035895;28;20041;-46
2020/12/28 01:45:52;;;;;;;8.52;5.50;;;1.90;98.10;;;;;;5036499;28;20108;-46
2020/12/28 01:48:18;;;;;;;8.75;4.93;;;2.00;98.60;;;;;;5035421;28;20120;-46
2020/12/28 01:50:44;;;;;;;8.68;4.82;;;2.00;98.70;;;;;;5035714;28;20480;-50
2020/12/28 01:53:09;;;;;;;7.97;5.18;;;2.00;98.30;;;;;;5036014;28;20047;-47
2020/12/28 01:55:35;;;;;;;9.48;5.78;;;2.00;98.90;;;;;;5069806;28;20528;-47
2020/12/28 01:58:00;;;;;;;8.85;5.38;;;2.00;99.40;;;;;;5039557;28;20048;-50
2020/12/28 02:00:26;;;;;;;9.43;5.18;;;1.90;99.50;;;;;;5042697;28;20070;-49
2020/12/28 02:02:52;;;;;;;8.57;5.18;;;2.00;99.90;;;;;;5040118;28;20037;-49
2020/12/28 02:05:17;;;;;;;9.25;5.57;;;1.90;99.90;;;;;;5046117;28;20438;-46
2020/12/28 02:07:44;;;;;;;10.50;5.95;;;1.90;99.90;;;;;;5034376;28;20037;-46
2020/12/28 02:10:10;;;;;;;9.80;5.93;;;1.90;99.90;;;;;;5038438;28;20029;-48
2020/12/28 02:12:36;;;;;;;8.93;4.63;;;1.80;99.90;;;;;;5040235;28;20041;-45
2020/12/28 02:15:03;;;;;;;13.05;6.38;;;1.70;99.90;;;;;;5038139;28;20177;-47
2020/12/28 02:17:29;;;;;;;10.82;5.90;;;1.60;99.90;;;;;;5038308;28;20032;-44
2020/12/28 02:19:55;;;;;;;13.27;6.82;;;1.60;99.90;;;;;;5041054;28;20037;-46
2020/12/28 02:22:20;;;;;;;10.80;6.13;;;1.50;99.90;;;;;;5042149;28;20399;-50
2020/12/28 02:24:46;;;;;;;11.07;6.25;;;1.50;99.90;;;;;;5045935;28;20044;-46
2020/12/28 02:27:11;;;;;;;9.82;5.53;;;1.40;99.90;;;;;;5068938;28;20074;-48
2020/12/28 02:29:37;;;;;;;13.60;6.60;;;1.40;99.90;;;;;;5037148;28;20037;-46
2020/12/28 02:32:02;;;;;;;9.10;5.40;;;1.30;99.90;;;;;;5034402;28;20040;-44
2020/12/28 02:34:28;;;;;;;13.93;7.18;;;1.30;99.90;;;;;;5033110;28;20163;-47
2020/12/28 02:36:53;;;;;;;12.88;6.38;;;1.20;99.90;;;;;;5037696;28;20474;-46
2020/12/28 02:39:19;;;;;;;12.60;5.72;;;1.20;99.90;;;;;;5038833;28;20033;-44
2020/12/28 02:41:44;;;;;;;11.18;7.18;;;1.20;99.90;;;;;;5035764;28;20449;-46
2020/12/28 02:44:10;;;;;;;9.85;5.45;;;1.20;99.90;;;;;;5037965;28;20140;-46
2020/12/28 02:46:35;;;;;;;11.80;6.32;;;1.20;99.90;;;;;;5036295;28;20044;-44
2020/12/28 02:49:00;;;;;;;12.45;6.15;;;1.10;99.90;;;;;;5033188;28;20048;-47
2020/12/28 02:51:26;;;;;;;10.57;5.78;;;1.10;99.90;;;;;;5046419;28;20052;-49
2020/12/28 02:53:51;;;;;;;12.50;7.15;;;1.10;99.90;;;;;;5042278;28;20053;-52
2020/12/28 02:56:17;;;;;;;10.98;6.32;;;1.00;99.90;;;;;;5033823;28;20038;-49
2020/12/28 02:58:42;;;;;;;14.05;6.90;;;1.10;99.90;;;;;;5040484;28;20037;-46
2020/12/28 03:01:08;;;;;;;12.80;6.55;;;1.00;99.90;;;;;;5033692;28;20095;-47
2020/12/28 03:03:33;;;;;;;8.35;4.45;;;1.00;99.90;;;;;;5038830;28;20032;-49
2020/12/28 03:05:59;;;;;;;12.45;5.70;;;1.00;99.90;;;;;;5032951;28;20033;-48
2020/12/28 03:08:24;;;;;;;15.02;6.95;;;0.90;99.90;;;;;;5039171;28;20035;-47
2020/12/28 03:10:50;;;;;;;9.68;5.93;;;1.00;99.90;;;;;;5039143;28;20033;-47
2020/12/28 03:13:16;;;;;;;9.50;5.82;;;0.90;99.90;;;;;;5034393;28;20481;-44
2020/12/28 03:15:41;;;;;;;9.88;5.53;;;0.90;99.90;;;;;;5038863;28;20382;-48
2020/12/28 03:18:07;;;;;;;12.00;5.30;;;0.90;99.90;;;;;;5038323;28;20045;-44
2020/12/28 03:20:32;;;;;;;9.07;4.95;;;0.80;99.90;;;;;;5046523;28;20076;-48
2020/12/28 03:22:57;;;;;;;9.32;5.88;;;0.80;99.90;;;;;;5041577;28;20029;-45
2020/12/28 03:25:23;;;;;;;13.15;5.45;;;0.80;99.90;;;;;;5034043;28;20104;-45
2020/12/28 03:27:48;;;;;;;11.13;5.78;;;0.80;99.90;;;;;;5033109;28;20547;-45
2020/12/28 03:30:14;;;;;;;8.05;5.20;;;0.90;99.90;;;;;;5040268;28;20031;-44
2020/12/28 03:32:39;;;;;;;10.13;6.35;;;1.00;99.90;;;;;;5037078;28;20039;-48
2020/12/28 03:35:05;;;;;;;12.32;5.70;;;1.00;99.90;;;;;;5032905;28;20040;-47
2020/12/28 03:37:30;;;;;;;11.38;5.55;;;1.10;99.90;;;;;;5033277;28;20037;-49
2020/12/28 03:39:56;;;;;;;12.82;7.05;;;1.10;99.90;;;;;;5032345;28;20037;-47
2020/12/28 03:42:21;;;;;;;9.80;5.45;;;1.20;99.90;;;;;;5039065;28;20021;-51
2020/12/28 03:44:47;;;;;;;14.07;7.43;;;1.30;99.90;;;;;;5038499;28;20026;-45
2020/12/28 03:47:14;;;;;;;10.00;5.53;;;1.30;99.90;;;;;;5037367;28;20037;-49
2020/12/28 03:49:39;;;;;;;8.65;5.28;;;1.40;99.90;;;;;;5038005;28;20025;-48
2020/12/28 03:52:05;;;;;;;11.20;5.18;;;1.40;99.90;;;;;;5033747;28;20482;-49
2020/12/28 03:54:30;;;;;;;12.45;6.32;;;1.40;99.90;;;;;;5039013;28;20017;-49
2020/12/28 03:56:56;;;;;;;11.73;6.55;;;1.50;99.90;;;;;;5032167;28;20060;-46
2020/12/28 03:59:21;;;;;;;11.50;5.63;;;1.50;99.90;;;;;;5032725;28;20102;-47
2020/12/28 04:01:47;;;;;;;7.13;5.07;;;1.50;99.90;;;;;;5037266;28;20033;-45
2020/12/28 04:04:13;;;;;;;9.93;5.65;;;1.60;99.90;;;;;;5031416;28;20104;-46
2020/12/28 04:06:38;;;;;;;10.05;5.65;;;1.60;99.90;;;;;;5034580;28;20041;-45
2020/12/28 04:09:04;;;;;;;11.77;6.20;;;1.60;99.90;;;;;;5034480;28;20037;-43
2020/12/28 04:11:29;;;;;;;10.20;5.13;;;1.60;99.90;;;;;;5033768;28;20034;-44
2020/12/28 04:13:55;;;;;;;11.25;6.18;;;1.60;99.90;;;;;;5042123;28;20021;-46
2020/12/28 04:16:20;;;;;;;8.80;5.32;;;1.70;99.90;;;;;;5033695;28;20026;-50
2020/12/28 04:18:46;;;;;;;8.82;5.25;;;1.60;99.90;;;;;;5031017;28;20069;-48
2020/12/28 04:21:11;;;;;;;11.90;5.85;;;1.70;99.90;;;;;;5032970;28;20488;-44
2020/12/28 04:23:37;;;;;;;10.13;5.93;;;1.70;99.90;;;;;;5043627;28;20033;-45
2020/12/28 04:26:04;;;;;;;11.60;5.13;;;1.70;99.90;;;;;;5032297;28;20108;-48
2020/12/28 04:28:29;;;;;;;10.38;5.75;;;1.70;99.90;;;;;;5032519;28;20029;-47
2020/12/28 04:30:55;;;;;;;10.63;5.88;;;1.70;99.90;;;;;;5045515;28;20028;-47
2020/12/28 04:33:20;;;;;;;10.52;5.97;;;1.70;99.90;;;;;;5031362;28;20033;-47
2020/12/28 04:35:46;;;;;;;10.10;6.13;;;1.70;99.90;;;;;;5031793;28;20120;-49
2020/12/28 04:38:11;;;;;;;9.43;5.68;;;1.80;99.90;;;;;;5034240;28;20390;-45
2020/12/28 04:40:38;;;;;;;11.40;6.53;;;1.80;99.90;;;;;;5040818;28;20059;-51
2020/12/28 04:43:09;;;;;;;13.38;6.75;;;1.80;99.90;;;;;;5034403;28;20472;-46
2020/12/28 04:45:34;;;;;;;9.73;5.55;;;1.80;99.90;;;;;;5040914;28;20409;-50
2020/12/28 04:48:00;;;;;;;10.00;6.00;;;1.80;99.90;;;;;;5032005;28;20037;-50
2020/12/28 04:50:26;;;;;;;12.70;6.70;;;1.80;99.90;;;;;;5036271;28;20042;-49
2020/12/28 04:52:51;;;;;;;11.82;6.32;;;1.80;99.90;;;;;;5032560;28;20071;-46
2020/12/28 04:55:17;;;;;;;12.43;6.22;;;1.80;99.90;;;;;;5034677;28;20043;-50
2020/12/28 04:57:43;;;;;;;12.02;6.38;;;1.80;99.90;;;;;;5039841;28;20026;-46
2020/12/28 05:00:08;;;;;;;13.25;7.53;;;1.80;99.90;;;;;;5042627;28;20068;-47
2020/12/28 05:02:33;;;;;;;11.98;6.93;;;1.80;99.90;;;;;;5030985;28;20449;-47
2020/12/28 05:05:08;;;;;;;8.77;5.95;;;1.80;99.90;;;;;;5035439;28;20446;-49
2020/12/28 05:07:34;;;;;;;9.50;5.10;;;1.80;99.90;;;;;;5039182;28;20021;-48
2020/12/28 05:10:00;;;;;;;10.45;5.97;;;1.80;99.90;;;;;;5031379;28;20470;-46
2020/12/28 05:12:26;;;;;;;13.55;6.47;;;1.80;99.90;;;;;;5036848;28;20033;-47
2020/12/28 05:15:06;;;;;;;10.75;6.68;;;1.70;99.90;;;;;;5034510;28;20508;-49
2020/12/28 05:17:32;;;;;;;7.65;5.03;;;1.80;99.90;;;;;;5037147;28;20025;-48
2020/12/28 05:20:01;;;;;;;9.18;6.03;;;1.80;99.90;;;;;;5035784;28;20025;-47
2020/12/28 05:22:28;;;;;;;10.90;6.38;;;1.70;99.90;;;;;;5039173;28;20064;-47
2020/12/28 05:24:55;;;;;;;9.95;6.22;;;1.80;99.90;;;;;;5037106;28;20111;-46
2020/12/28 05:27:21;;;;;;;10.15;6.32;;;1.80;99.90;;;;;;5031744;28;20109;-48
2020/12/28 05:29:48;;;;;;;8.40;5.20;;;1.80;99.90;;;;;;5034761;28;20061;-45
2020/12/28 05:32:15;;;;;;;9.65;6.20;;;1.80;99.90;;;;;;5038556;28;20064;-48
2020/12/28 05:34:44;;;;;;;10.32;6.18;;;1.80;99.90;;;;;;5037513;28;20029;-48
2020/12/28 05:37:11;;;;;;;7.47;4.88;;;1.90;99.90;;;;;;5037347;28;20116;-46
2020/12/28 05:39:37;;;;;;;9.15;5.50;;;1.90;99.90;;;;;;5038423;28;20071;-45
2020/12/28 05:42:09;;;;;;;8.40;5.47;;;1.90;99.90;;;;;;5038749;28;20104;-46
2020/12/28 05:44:40;;;;;;;10.10;5.95;;;1.90;99.90;;;;;;5036618;28;20022;-44
2020/12/28 05:47:07;;;;;;;10.75;6.68;;;1.90;99.90;;;;;;5046256;28;20482;-47
2020/12/28 05:49:43;;;;;;;10.23;6.45;;;1.90;99.90;;;;;;5042270;28;20021;-47
2020/12/28 05:52:11;;;;;;;8.57;5.38;;;2.00;99.90;;;;;;5038323;28;20076;-47
2020/12/28 05:54:37;;;;;;;11.57;6.88;;;1.90;99.90;;;;;;5034847;28;20048;-47
2020/12/28 05:57:04;;;;;;;9.75;6.20;;;2.00;99.90;;;;;;5037373;28;20097;-46
2020/12/28 05:59:34;;;;;;;10.25;6.70;;;2.00;99.90;;;;;;5039159;28;20387;-46
2020/12/28 06:02:01;;;;;;;11.27;6.63;;;2.00;99.90;;;;;;5045808;28;20033;-44
2020/12/28 06:04:27;;;;;;;12.50;7.85;;;2.00;99.90;;;;;;5034007;28;20037;-47
2020/12/28 06:07:00;;;;;;;10.02;5.68;;;1.90;99.90;;;;;;5047438;28;20033;-45
2020/12/28 06:09:27;;;;;;;15.50;7.07;;;2.00;99.90;;;;;;5043777;28;20033;-48
2020/12/28 06:12:09;;;;;;;11.00;6.53;;;1.90;99.90;;;;;;5042183;28;20037;-45
2020/12/28 06:14:36;;;;;;;8.88;6.20;;;1.90;99.90;;;;;;5039805;28;20115;-48
2020/12/28 06:17:07;;;;;;;9.07;5.07;;;1.90;99.90;;;;;;5042784;28;20017;-46
2020/12/28 06:19:33;;;;;;;9.63;6.13;;;1.90;99.90;;;;;;5044046;28;20051;-50
2020/12/28 06:21:59;;;;;;;10.57;6.90;;;1.90;99.90;;;;;;5045583;28;20037;-46
2020/12/28 06:24:30;;;;;;;11.40;7.05;;;1.90;99.90;;;;;;5039445;28;20056;-50
2020/12/28 06:26:59;;;;;;;12.48;6.85;;;1.90;99.90;;;;;;5040801;28;20020;-46
2020/12/28 06:29:24;;;;;;;13.40;7.82;;;1.90;99.90;;;;;;5038576;28;20616;-49
2020/12/28 06:31:50;;;;;;;12.15;7.07;;;1.90;99.90;;;;;;5045237;28;20037;-47
2020/12/28 06:34:19;;;;;;;8.70;5.57;;;2.00;99.90;;;;;;5045257;28;20396;-49
2020/12/28 06:36:45;;;;;;;10.88;7.22;;;2.00;99.90;;;;;;5034266;28;20037;-49
2020/12/28 06:39:11;;;;;;;8.90;5.80;;;2.00;99.90;;;;;;5034611;28;20041;-45
2020/12/28 06:41:37;;;;;;;10.10;6.07;;;2.00;99.90;;;;;;5037184;28;20037;-48
2020/12/28 06:44:03;;;;;;;10.38;5.85;;;2.00;99.90;;;;;;5044482;28;20051;-47
2020/12/28 06:46:30;;;;;;;11.18;6.95;;;2.00;99.90;;;;;;5039977;28;20034;-47
2020/12/28 06:48:58;;;;;;;9.50;5.50;;;2.00;99.90;;;;;;5033785;28;20060;-47
2020/12/28 06:51:24;;;;;;;10.75;6.40;;;2.00;99.90;;;;;;5035820;28;20045;-46
2020/12/28 06:53:54;;;;;;;9.07;5.53;;;2.00;99.90;;;;;;5033885;28;20030;-46
2020/12/28 06:56:24;;;;;;;10.63;6.32;;;2.10;99.90;;;;;;5034132;28;20029;-46
2020/12/28 06:58:59;;;;;;;8.15;6.13;;;2.00;99.90;;;;;;5036265;28;20028;-48
2020/12/28 07:01:25;;;;;;;8.90;5.53;;;2.00;99.90;;;;;;5035166;28;20047;-49
2020/12/28 07:03:59;;;;;;;12.75;6.88;;;2.00;99.90;;;;;;5035598;28;20112;-44
2020/12/28 07:06:24;;;;;;;9.13;6.07;;;2.00;99.90;;;;;;5033286;28;20025;-50
2020/12/28 07:08:50;;;;;;;9.10;5.85;;;1.90;99.90;;;;;;5037203;28;20037;-47
2020/12/28 07:11:18;;;;;;;9.82;5.95;;;1.90;99.90;;;;;;5038765;28;20037;-47
2020/12/28 07:13:47;;;;;;;10.10;5.82;;;1.90;99.90;;;;;;5034921;28;20489;-44
2020/12/28 07:16:13;;;;;;;9.20;6.03;;;1.90;99.90;;;;;;5033859;28;20039;-46
2020/12/28 07:18:39;;;;;;;8.77;5.72;;;1.90;99.90;;;;;;5037918;28;20052;-48
2020/12/28 07:21:06;;;;;;;12.20;7.47;;;1.80;99.90;;;;;;5043843;28;20037;-44
2020/12/28 07:23:33;;;;;;;9.68;5.97;;;1.80;99.90;;;;;;5033612;28;20115;-47
2020/12/28 07:26:05;;;;;;;11.25;6.80;;;1.80;99.90;;;;;;5033541;28;20064;-45
2020/12/28 07:28:31;;;;;;;12.23;6.53;;;1.80;99.90;;;;;;5033761;28;20461;-46
2020/12/28 07:31:02;;;;;;;10.82;6.03;;;1.80;99.90;;;;;;5034334;28;20040;-45
2020/12/28 07:33:28;;;;;;;11.10;6.57;;;1.80;99.90;;;;;;5036808;28;20029;-47
2020/12/28 07:36:09;;;;;;;9.43;6.50;;;1.80;99.90;;;;;;5033944;28;20056;-48
2020/12/28 07:38:35;;;;;;;10.27;6.03;;;1.80;99.90;;;;;;5038753;28;20028;-45
2020/12/28 07:41:01;;;;;;;11.05;6.78;;;1.80;99.90;;;;;;5038912;28;20036;-45
2020/12/28 07:43:31;;;;;;;9.80;5.85;;;1.80;99.90;;;;;;5038605;28;20036;-47
2020/12/28 07:46:07;;;;;;;12.23;6.75;;;1.80;99.90;;;;;;5038910;28;20144;-46
2020/12/28 07:48:36;;;;;;;12.02;7.43;;;1.80;99.90;;;;;;5031975;28;20483;-47
2020/12/28 07:51:07;;;;;;;11.57;7.35;;;1.80;99.90;;;;;;5037616;28;20037;-46
2020/12/28 07:53:41;;;;;;;11.45;7.18;;;1.80;99.90;;;;;;5040474;28;20026;-47
2020/12/28 07:56:16;;;;;;;9.55;6.68;;;1.80;99.90;;;;;;5036757;28;20068;-48
2020/12/28 07:59:08;;;;;;;10.27;5.75;;;1.90;99.90;;;;;;5038714;28;20469;-44
2020/12/28 08:01:51;;;;;;;10.05;6.00;;;1.90;99.90;;;;;;5036563;28;20065;-47
2020/12/28 08:04:25;;;;;;;9.85;5.95;;;1.90;99.90;;;;;;5031847;28;20036;-44
2020/12/28 08:06:55;;;;;;;10.35;6.20;;;1.80;99.90;;;;;;5032930;28;20227;-44
2020/12/28 08:09:22;;;;;;;9.85;6.68;;;1.80;99.90;;;;;;5036297;28;20116;-46
2020/12/28 08:12:02;;;;;;;10.98;7.22;;;1.90;99.90;;;;;;5041215;28;20030;-49
2020/12/28 08:14:28;;;;;;;9.68;5.97;;;1.90;99.90;;;;;;5032863;28;20470;-46
2020/12/28 08:16:54;;;;;;;11.10;6.82;;;1.90;99.90;;;;;;5038964;28;20466;-48
2020/12/28 08:19:26;;;;;;;10.93;6.32;;;1.90;99.90;;;;;;5037547;28;20073;-47
2020/12/28 08:21:52;;;;;;;9.30;6.05;;;1.90;99.90;;;;;;5037835;28;20030;-47
2020/12/28 08:24:19;;;;;;;9.35;6.40;;;2.00;99.90;;;;;;5035078;28;20029;-44
2020/12/28 08:26:45;;;;;;;11.52;5.75;;;2.00;99.90;;;;;;5034946;28;20504;-45
2020/12/28 08:29:11;;;;;;;10.30;5.20;;;2.00;99.90;;;;;;5032178;28;20030;-46
2020/12/28 08:31:37;;;;;;;12.93;6.68;;;2.10;99.90;;;;;;5032326;28;20033;-43
2020/12/28 08:34:08;;;;;;;11.32;6.88;;;2.10;99.90;;;;;;5033476;28;20025;-46
2020/12/28 08:36:41;;;;;;;8.52;5.82;;;2.20;99.90;;;;;;5036706;28;20104;-46
2020/12/28 08:39:12;;;;;;;9.50;5.43;;;2.30;99.90;;;;;;5031989;28;20391;-45
2020/12/28 08:41:49;;;;;;;8.38;5.63;;;2.30;99.90;;;;;;5035594;28;20028;-46
2020/12/28 08:44:27;;;;;;;8.30;5.88;;;2.30;99.90;;;;;;5034654;28;20017;-43
2020/12/28 08:46:53;;;;;;;9.75;5.75;;;2.40;99.90;;;;;;5036007;28;20029;-46
2020/12/28 08:49:29;;;;;;;9.60;5.30;;;2.40;99.90;;;;;;5034800;28;20500;-45
2020/12/28 08:52:06;;;;;;;;;;;2.50;99.90;;;;;;5035807;28;20375;-43
2020/12/28 08:54:32;;;;;;;8.80;6.60;;;2.50;99.90;;;;;;5032029;28;19924;-51
2020/12/28 08:56:57;;;;;;;10.63;6.72;;;2.60;99.90;;;;;;5038402;28;20028;-43
2020/12/28 08:59:23;;;;;;;11.27;6.30;;;2.60;99.90;;;;;;5038311;28;20057;-47
2020/12/28 09:01:55;;;;;;;8.98;5.50;;;2.60;99.90;;;;;;5032139;28;20404;-43
2020/12/28 09:04:21;;;;;;;10.82;5.78;;;2.70;99.90;;;;;;5037000;28;20041;-43
2020/12/28 09:06:48;;;;;;;8.95;5.95;;;2.70;99.90;;;;;;5037593;28;20080;-46
2020/12/28 09:09:14;;;;;;;10.85;6.05;;;2.70;99.90;;;;;;5043460;28;20486;-44
2020/12/28 09:11:40;;;;;;;9.65;5.97;;;2.80;99.90;;;;;;5037003;28;20083;-44
2020/12/28 09:14:06;;;;;;;9.00;4.95;;;2.80;99.90;;;;;;5037110;28;20034;-46
2020/12/28 09:16:32;;;;;;;8.32;5.50;;;2.80;99.90;;;;;;5042015;28;20475;-45
2020/12/28 09:18:57;;;;;;;8.75;5.38;;;2.80;99.90;;;;;;5036228;28;20075;-44
2020/12/28 09:21:23;;;;;;;9.20;6.15;;;2.90;99.90;;;;;;5040596;28;20466;-45
2020/12/28 09:23:48;;;;;;;11.00;7.28;;;2.80;99.90;;;;;;5036434;28;20497;-44
2020/12/28 09:26:14;;;;;;;14.43;7.55;;;2.90;99.90;;;;;;5036321;28;20044;-44
2020/12/28 09:28:39;;;;;;;12.60;7.20;;;3.00;99.90;;;;;;5031465;28;20061;-45
2020/12/28 09:31:05;;;;;;;9.25;6.03;;;3.00;99.90;;;;;;5031998;28;20042;-44
2020/12/28 09:33:32;;;;;;;9.95;5.88;;;3.00;99.90;;;;;;5034565;28;20034;-44
2020/12/28 09:35:57;;;;;;;9.73;6.30;;;3.10;99.90;;;;;;5031578;28;20056;-44
2020/12/28 09:38:23;;;;;;;9.82;5.93;;;3.10;99.90;;;;;;5035435;28;20065;-45
2020/12/28 09:40:48;;;;;;;12.98;5.43;;;3.10;99.90;;;;;;5031924;28;20083;-44
2020/12/28 09:43:14;;;;;;;9.57;5.63;;;3.10;99.90;;;;;;5034350;28;20033;-44
2020/12/28 09:45:40;;;;;;;10.07;6.22;;;3.20;99.90;;;;;;5035208;28;20430;-43
2020/12/28 09:48:06;;;;;;;8.48;5.78;;;3.20;99.90;;;;;;5033158;28;20033;-47
2020/12/28 09:50:32;;;;;;;9.90;4.85;;;3.30;99.90;;;;;;5038865;28;20048;-43
2020/12/28 09:52:57;;;;;;;7.38;4.78;;;3.30;99.90;;;;;;5034801;28;20022;-45
2020/12/28 09:55:23;;;;;;;8.73;4.93;;;3.40;99.90;;;;;;5034563;28;20033;-46
2020/12/28 09:57:48;;;;;;;10.18;5.43;;;3.50;99.90;;;;;;5031494;28;20018;-45
2020/12/28 10:00:15;;;;;;;10.00;5.82;;;3.60;99.90;;;;;;5033742;28;20041;-44
2020/12/28 10:02:42;;;;;;;9.45;5.97;;;3.60;99.90;;;;;;5032261;28;20216;-46
2020/12/28 10:05:08;;;;;;;6.97;5.38;;;3.70;99.90;;;;;;5037849;28;20028;-46
2020/12/28 10:07:34;;;;;;;10.85;6.07;;;3.70;99.90;;;;;;5032701;28;20481;-46
2020/12/28 10:10:00;;;;;;;7.03;5.13;;;3.80;99.90;;;;;;5032818;28;20371;-48
2020/12/28 10:12:27;;;;;;;8.10;5.25;;;3.80;99.90;;;;;;5035010;28;20025;-46
2020/12/28 10:14:53;;;;;;;9.73;5.20;;;3.90;99.90;;;;;;5032497;28;20059;-45
2020/12/28 10:17:19;;;;;;;7.05;4.93;;;3.90;99.90;;;;;;5036853;28;20028;-49
2020/12/28 10:19:44;;;;;;;6.85;4.18;;;4.00;99.90;;;;;;5044535;28;20104;-47
2020/12/28 10:22:11;;;;;;;8.20;5.50;;;4.00;99.90;;;;;;5041927;28;20037;-48
2020/12/28 10:24:37;;;;;;;6.57;4.97;;;4.10;99.90;;;;;;5047784;28;20120;-47
2020/12/28 10:27:03;;;;;;;7.03;4.18;;;4.10;99.90;;;;;;5034963;28;20037;-43
2020/12/28 10:29:28;;;;;;;7.70;4.60;;;4.20;99.90;;;;;;5040255;28;20025;-44
2020/12/28 10:31:57;;;;;;;7.63;4.55;;;4.20;99.90;;;;;;5040862;28;20029;-45
2020/12/28 10:34:24;;;;;;;5.50;4.25;;;4.20;99.70;;;;;;5057077;28;20025;-44
2020/12/28 10:36:49;;;;;;;7.10;4.50;;;4.30;99.40;;;;;;5039190;28;20041;-46
2020/12/28 10:39:15;;;;;;;6.75;4.55;;;4.30;98.80;;;;;;5048394;28;20381;-48
2020/12/28 10:41:40;;;;;;;9.00;6.30;;;4.40;98.50;;;;;;5038041;28;20066;-46
2020/12/28 10:44:06;;;;;;;6.20;4.35;;;4.50;98.10;;;;;;5044524;28;20032;-44
2020/12/28 10:46:33;;;;;;;8.45;5.68;;;4.50;97.30;;;;;;5046130;28;21156;-44
2020/12/28 10:48:59;;;;;;;8.32;4.97;;;4.60;97.20;;;;;;5032679;28;20025;-47
2020/12/28 10:51:25;;;;;;;6.18;4.05;;;4.70;96.90;;;;;;5041517;28;20080;-46
2020/12/28 10:53:50;;;;;;;10.40;5.45;;;4.70;96.20;;;;;;5035387;28;20033;-44
2020/12/28 10:56:24;;;;;;;10.10;4.60;;;4.70;95.40;;;;;;5046762;28;20069;-48
2020/12/28 10:58:49;;;;;;;6.63;4.10;;;4.80;95.00;;;;;;5041418;28;20521;-43
2020/12/28 11:01:15;;;;;;;7.15;4.63;;;4.90;94.90;;;;;;5043077;28;20104;-44
2020/12/28 11:03:40;;;;;;;5.78;3.45;;;5.00;94.50;;;;;;5039937;28;20029;-46
2020/12/28 11:06:06;;;;;;;8.52;5.25;;;5.00;94.70;;;;;;5052909;28;20114;-44
2020/12/28 11:08:31;;;;;;;8.52;5.25;;;5.10;94.50;;;;;;5040510;28;20076;-43
2020/12/28 11:10:57;;;;;;;8.20;4.88;;;5.10;93.30;;;;;;5036284;28;20056;-45
2020/12/28 11:13:23;;;;;;;6.00;3.58;;;5.10;92.80;;;;;;5041804;28;20028;-46
2020/12/28 11:15:48;;;;;;;7.30;4.70;;;5.10;92.90;;;;;;5039783;28;20473;-46
2020/12/28 11:18:14;;;;;;;7.38;3.92;;;5.10;92.60;;;;;;5038909;28;20037;-46
2020/12/28 11:20:39;;;;;;;9.00;4.55;;;5.10;92.70;;;;;;5039140;28;20025;-44
2020/12/28 11:23:05;;;;;;;5.97;3.88;;;5.10;92.30;;;;;;5036258;28;20032;-44
2020/12/28 11:25:30;;;;;;;5.50;3.90;;;5.10;92.50;;;;;;5038742;28;21008;-43
2020/12/28 11:27:56;;;;;;;5.22;3.88;;;5.10;92.80;;;;;;5040935;28;20025;-44
2020/12/28 11:30:21;;;;;;;7.07;4.22;;;5.10;93.00;;;;;;5037958;28;20530;-44
2020/12/28 11:32:46;;;;;;;8.20;4.50;;;5.10;93.20;;;;;;5037021;28;20041;-46
2020/12/28 11:35:12;;;;;;;7.25;4.22;;;5.10;93.00;;;;;;5035309;28;20028;-46
2020/12/28 11:37:37;;;;;;;5.30;3.92;;;5.10;92.80;;;;;;5037800;28;20383;-47
2020/12/28 11:40:04;;;;;;;3.80;2.90;;;5.10;92.70;;;;;;5035156;28;20478;-46
2020/12/28 11:42:30;;;;;;;5.90;3.75;;;5.10;92.90;;;;;;5039482;28;20114;-45
2020/12/28 11:44:56;;;;;;;6.22;3.88;;;5.00;92.80;;;;;;5050114;28;20032;-47
2020/12/28 11:47:22;;;;;;;8.57;4.30;;;5.10;92.80;;;;;;5051767;28;20052;-46
2020/12/28 11:49:47;;;;;;;4.85;4.07;;;5.10;92.90;;;;;;5048917;28;20083;-48
2020/12/28 11:52:14;;;;;;;4.20;3.15;;;5.00;92.60;;;;;;5047992;28;20079;-48
2020/12/28 11:54:39;;;;;;;8.07;4.50;;;5.10;92.80;;;;;;5043277;28;20025;-47
2020/12/28 11:57:05;;;;;;;5.68;3.85;;;5.10;92.70;;;;;;5038351;28;20091;-43
2020/12/28 11:59:30;;;;;;;6.47;4.22;;;5.10;92.60;;;;;;5052678;28;20063;-46
2020/12/28 12:01:56;;;;;;;5.30;3.80;;;5.00;92.50;;;;;;5049256;28;20060;-46
2020/12/28 12:04:48;;;;;;;5.68;3.83;;;5.10;92.40;;;;;;5040403;28;20037;-44
2020/12/28 12:07:07;;;;;;;9.45;5.22;;;5.00;92.60;;;;;;5033753;28;20045;-43
2020/12/28 12:09:33;;;;;;;12.02;7.35;;;5.00;92.10;;;;;;5046757;28;20028;-46
2020/12/28 12:11:58;;;;;;;6.85;4.70;;;5.10;92.10;;;;;;5048540;28;20045;-43
2020/12/28 12:14:25;;;;;;;9.45;5.10;;;5.10;92.00;;;;;;5032605;28;20309;-43
2020/12/28 12:16:52;;;;;;;8.98;5.15;;;5.00;92.20;;;;;;5037033;28;20057;-45
2020/12/28 12:19:18;;;;;;;7.63;4.20;;;5.10;92.10;;;;;;5042946;28;20033;-43
2020/12/28 12:21:43;;;;;;;24.17;5.53;;;5.10;92.20;;;;;;5047752;28;20028;-48
2020/12/28 12:24:09;;;;;;;6.03;4.45;;;5.00;91.80;;;;;;5046052;28;20037;-46
2020/12/28 12:26:35;;;;;;;16.98;4.72;;;5.00;91.90;;;;;;5047137;28;20029;-46
2020/12/28 12:29:03;;;;;;;11.02;4.22;;;5.00;91.90;;;;;;5049464;28;20389;-47
2020/12/28 12:31:28;;;;;;;7.60;4.80;;;5.00;92.30;;;;;;5045894;28;20029;-46
2020/12/28 12:33:54;;;;;;;8.80;5.05;;;5.00;92.40;;;;;;5046192;28;20033;-49
2020/12/28 12:36:19;;;;;;;8.60;4.85;;;5.00;92.20;;;;;;5042881;28;20104;-46
2020/12/28 12:38:45;;;;;;;15.65;4.93;;;5.00;92.40;;;;;;5045436;28;20021;-44
2020/12/28 12:41:14;;;;;;;10.10;5.38;;;5.10;92.30;;;;;;5045721;28;20029;-46
2020/12/28 12:43:40;;;;;;;9.32;5.13;;;5.00;91.90;;;;;;5038247;28;20108;-46
2020/12/28 12:46:08;;;;;;;7.93;4.45;;;5.00;92.20;;;;;;5040462;28;20113;-44
2020/12/28 12:48:33;;;;;;;13.75;4.63;;;5.00;92.30;;;;;;5036945;28;20029;-44
2020/12/28 12:50:58;;;;;;;8.40;4.72;;;5.00;92.50;;;;;;5037965;28;20562;-45